Data for 12/06/2010

Time Sea-Level Adjusted Pressure Absolute Pressure Temperature Relative Humidity Dew Point   
(mb) (inHg) (mb) (inHg) (C) (F) (%) (C) (F)
00:05 1025 30.27 855 25.25 -8.3 17 93 -9.2 15.4
00:10 1025 30.27 855 25.25 -8.1 17.4 92 -9.2 15.5
00:15 1025 30.27 855 25.25 -8.1 17.5 91 -9.2 15.4
00:20 1025 30.27 854 25.22 -8.2 17.3 86 -10.2 13.7
00:25 1025 30.27 854 25.22 -8.9 16 90 -10.3 13.5
00:30 1025 30.27 854 25.22 -8.8 16.1 92 -10 14.1
00:35 1025 30.27 854 25.22 -8.6 16.6 92 -9.6 14.8
00:40 1025 30.27 854 25.22 -8.3 17 92 -9.4 15.1
00:45 1025 30.27 854 25.22 -8.1 17.4 88 -9.8 14.3
00:50 1025 30.27 854 25.22 -8.4 16.8 87 -10.2 13.7
00:55 1025 30.27 854 25.22 -8.5 16.6 87 -10.4 13.3
01:00 1025 30.27 854 25.22 -8.8 16.1 87 -10.7 12.8
01:05 1025 30.27 854 25.22 -9 15.9 87 -10.8 12.6
01:10 1025 30.27 854 25.22 -9.1 15.7 89 -10.6 12.9
01:15 1025 30.27 854 25.22 -9.3 15.2 84 -11.5 11.3
01:20 1025 30.27 854 25.22 -9.9 14.1 88 -11.5 11.3
01:25 1025 30.27 854 25.22 -10.1 13.8 91 -11.3 11.6
01:30 1025 30.27 854 25.22 -10 14.1 91 -11.1 11.9
01:35 1025 30.27 854 25.22 -10.2 13.6 91 -11.4 11.5
01:40 1025 30.27 854 25.22 -10.5 13.2 93 -11.4 11.6
01:45 1025 30.27 854 25.22 -10.2 13.7 95 -10.8 12.5
01:50 1025 30.27 854 25.22 -9.8 14.4 96 -10.4 13.3
01:55 1025 30.27 854 25.22 -9.4 15.1 96 -10 14.1
02:00 1025 30.27 854 25.22 -9.3 15.3 96 -9.8 14.4
02:05 1024 30.24 854 25.22 -9.1 15.6 96 -9.6 14.6
02:10 1024 30.24 854 25.22 -9 15.8 96 -9.5 15
02:15 1024 30.24 854 25.22 -8.8 16.3 96 -9.3 15.2
02:20 1024 30.24 854 25.22 -8.6 16.4 95 -9.3 15.2
02:25 1024 30.24 854 25.22 -9.1 15.6 94 -9.9 14.1
02:30 1024 30.24 853 25.19 -9.5 15 94 -10.3 13.5
02:35 1024 30.24 853 25.19 -9.7 14.5 95 -10.4 13.3
02:40 1024 30.24 853 25.19 -9.5 14.8 96 -10.1 13.8
02:45 1024 30.24 853 25.19 -9.3 15.2 95 -10 14.1
02:50 1024 30.24 853 25.19 -9.2 15.4 95 -9.9 14.2
02:55 1024 30.24 853 25.19 -8.8 16.1 95 -9.5 14.9
03:00 1024 30.24 853 25.19 -8.7 16.4 94 -9.5 14.9
03:05 1024 30.24 853 25.19 -8.8 16.1 94 -9.6 14.8
03:10 1024 30.24 853 25.19 -8.8 16.1 95 -9.5 14.9
03:15 1024 30.24 853 25.19 -8.6 16.6 95 -9.2 15.5
03:20 1024 30.24 853 25.19 -8 17.6 95 -8.7 16.4
03:25 1024 30.24 853 25.19 -8 17.5 92 -9.1 15.6
03:30 1024 30.24 853 25.19 -8.4 16.9 85 -10.5 13.2
03:35 1024 30.24 853 25.19 -9.1 15.6 89 -10.7 12.8
03:40 1024 30.24 853 25.19 -9.4 15.1 89 -10.9 12.4
03:45 1024 30.24 853 25.19 -9.4 15 92 -10.5 13
03:50 1024 30.24 853 25.19 -9 15.8 92 -10.1 13.9
03:55 1024 30.24 853 25.19 -9 15.7 91 -10.3 13.5
04:00 1024 30.24 853 25.19 -9.3 15.3 92 -10.3 13.4
04:05 1024 30.24 853 25.19 -9.4 15.1 93 -10.4 13.3
04:10 1024 30.24 853 25.19 -9.5 15 92 -10.6 13
04:15 1024 30.24 853 25.19 -9.6 14.6 91 -10.8 12.6
04:20 1024 30.24 853 25.19 -9.8 14.4 92 -10.9 12.4
04:25 1024 30.24 853 25.19 -10 14 92 -11 12.2
04:30 1024 30.24 853 25.19 -10.1 13.8 94 -10.8 12.5
04:35 1024 30.24 853 25.19 -10 14.1 95 -10.7 12.8
04:40 1023 30.21 853 25.19 -9.7 14.6 96 -10.2 13.7
04:45 1023 30.21 853 25.19 -9.4 15.1 96 -9.9 14.2
04:50 1023 30.21 853 25.19 -9.3 15.2 96 -9.9 14.2
04:55 1023 30.21 853 25.19 -9.2 15.4 96 -9.8 14.4
05:00 1023 30.21 853 25.19 -9.2 15.5 96 -9.7 14.5
05:05 1023 30.21 852 25.16 -9.2 15.5 95 -9.8 14.4
05:10 1023 30.21 852 25.16 -9.4 15.1 94 -10.2 13.6
05:15 1023 30.21 852 25.16 -9.5 14.9 94 -10.3 13.4
05:20 1023 30.21 852 25.16 -10 13.9 93 -10.9 12.3
05:25 1023 30.21 852 25.16 -10.3 13.4 95 -11 12.3
05:30 1023 30.21 852 25.16 -9.5 14.8 97 -9.9 14.1
05:35 1023 30.21 852 25.16 -9.2 15.5 95 -9.9 14.2
05:40 1023 30.21 852 25.16 -9.5 14.9 94 -10.3 13.4
05:45 1023 30.21 852 25.16 -9.5 14.9 95 -10.2 13.7
05:50 1023 30.21 852 25.16 -9.6 14.6 94 -10.5 13.2
05:55 1023 30.21 852 25.16 -9.9 14.3 94 -10.7 12.8
06:00 1023 30.21 852 25.16 -9.8 14.4 94 -10.6 13
06:05 1023 30.21 852 25.16 -9.3 15.3 96 -9.8 14.3
06:10 1023 30.21 852 25.16 -8.6 16.6 95 -9.3 15.3
06:15 1023 30.21 852 25.16 -8.5 16.6 91 -9.8 14.4
06:20 1023 30.21 852 25.16 -8.9 16 93 -9.9 14.3
06:25 1023 30.21 852 25.16 -9 15.8 91 -10.2 13.6
06:30 1023 30.21 852 25.16 -9.9 14.2 92 -11 12.2
06:35 1023 30.21 852 25.16 -10.2 13.6 92 -11.3 11.7
06:40 1023 30.21 852 25.16 -10.1 13.8 94 -10.9 12.4
06:45 1023 30.21 852 25.16 -9.8 14.4 94 -10.6 12.9
06:50 1023 30.21 852 25.16 -9.8 14.3 94 -10.6 12.9
06:55 1023 30.21 852 25.16 -9.6 14.7 94 -10.4 13.2
07:00 1023 30.21 852 25.16 -9.8 14.5 93 -10.6 12.8
07:05 1023 30.21 852 25.16 -9.8 14.4 94 -10.6 12.9
07:10 1023 30.21 852 25.16 -9.6 14.7 95 -10.3 13.4
07:15 1022 30.18 852 25.16 -9.4 15.2 95 -10 14
07:20 1022 30.18 852 25.16 -9.2 15.5 94 -10 14
07:25 1022 30.18 851 25.13 -9.3 15.3 94 -10.1 13.9
07:30 1022 30.18 851 25.13 -9 15.8 96 -9.5 14.9
07:35 1022 30.18 851 25.13 -8.6 16.5 96 -9.2 15.5
07:40 1022 30.18 851 25.13 -8.8 16.2 94 -9.5 14.8
07:45 1022 30.18 851 25.13 -9.3 15.2 94 -10.1 13.9
07:50 1022 30.18 851 25.13 -9 15.8 97 -9.5 15
07:55 1022 30.18 851 25.13 -8.6 16.6 96 -9.1 15.6
08:00 1022 30.18 851 25.13 -8.6 16.6 94 -9.4 15.1
08:05 1022 30.18 851 25.13 -8.8 16.2 94 -9.6 14.8
08:10 1022 30.18 851 25.13 -8.7 16.3 93 -9.6 14.7
08:15 1022 30.18 851 25.13 -8.9 16.1 93 -9.9 14.2
08:20 1022 30.18 851 25.13 -8.8 16.2 94 -9.6 14.8
08:25 1022 30.18 851 25.13 -8.4 16.8 94 -9.2 15.4
08:30 1022 30.18 851 25.13 -8.2 17.2 95 -8.9 15.9
08:35 1022 30.18 851 25.13 -8 17.6 94 -8.8 16.2
08:40 1022 30.18 851 25.13 -7.5 18.4 94 -8.3 17
08:45 1022 30.18 851 25.13 -7 19.4 94 -7.8 17.9
08:50 1022 30.18 851 25.13 -6.7 19.9 91 -8 17.7
08:55 1022 30.18 851 25.13 -7.1 19.2 91 -8.4 17
09:00 1022 30.18 851 25.13 -7.6 18.4 92 -8.7 16.3
09:05 1022 30.18 851 25.13 -7.6 18.2 92 -8.7 16.4
09:10 1022 30.18 851 25.13 -7.3 18.9 92 -8.5 16.8
09:15 1022 30.18 851 25.13 -7.2 19 91 -8.4 16.8
09:20 1022 30.18 851 25.13 -6.7 19.9 90 -8 17.5
09:25 1022 30.18 851 25.13 -6.6 20.1 88 -8.2 17.2
09:30 1022 30.18 851 25.13 -6.8 19.8 87 -8.7 16.4
09:35 1022 30.18 851 25.13 -6.8 19.7 87 -8.7 16.3
09:40 1022 30.18 851 25.13 -7.3 18.9 89 -8.7 16.3
09:45 1022 30.18 851 25.13 -7.2 19 90 -8.5 16.6
09:50 1022 30.18 851 25.13 -6.4 20.5 88 -8 17.6
09:55 1022 30.18 851 25.13 -6 21.1 87 -7.8 17.9
10:00 1022 30.18 851 25.13 -5.8 21.5 86 -7.9 17.8
10:05 1022 30.18 851 25.13 -5.9 21.5 84 -8.1 17.3
10:10 1022 30.18 851 25.13 -6.1 21.1 85 -8.2 17.2
10:15 1022 30.18 851 25.13 -6.1 21 85 -8.3 17.1
10:20 1021 30.15 851 25.13 -6.2 20.9 84 -8.4 16.9
10:25 1021 30.15 851 25.13 -6.3 20.6 84 -8.6 16.6
10:30 1021 30.15 851 25.13 -6.5 20.3 85 -8.6 16.5
10:35 1021 30.15 850 25.1 -5.9 21.3 83 -8.4 17
10:40 1021 30.15 850 25.1 -5.4 22.2 80 -8.4 17
10:45 1021 30.15 850 25.1 -5.2 22.6 80 -8.1 17.4
10:50 1021 30.15 850 25.1 -4.9 23.3 78 -8.2 17.3
10:55 1021 30.15 850 25.1 -4.7 23.6 78 -8 17.6
11:00 1021 30.15 850 25.1 -4.2 24.4 77 -7.7 18.1
11:05 1021 30.15 850 25.1 -4 24.8 75 -7.7 18.1
11:10 1021 30.15 850 25.1 -4.2 24.5 75 -7.9 17.8
11:15 1021 30.15 850 25.1 -3.9 24.9 74 -7.9 17.8
11:20 1021 30.15 850 25.1 -4.3 24.3 77 -7.7 18.2
11:25 1021 30.15 850 25.1 -4.5 23.9 78 -7.7 18.1
11:30 1021 30.15 850 25.1 -4.5 24 77 -8 17.7
11:35 1021 30.15 850 25.1 -4.6 23.6 79 -7.8 17.9
11:40 1020 30.12 850 25.1 -4.4 24.1 77 -7.7 18.1
11:45 1020 30.12 850 25.1 -4.4 24 77 -7.9 17.8
11:50 1020 30.12 849 25.07 -4.5 24 77 -7.8 17.9
11:55 1020 30.12 849 25.07 -4.3 24.2 77 -7.8 18
12:00 1020 30.12 849 25.07 -4.1 24.6 77 -7.5 18.4
12:05 1020 30.12 849 25.07 -3.9 25 75 -7.7 18.2
12:10 1020 30.12 849 25.07 -3.6 25.4 74 -7.7 18.2
12:15 1020 30.12 849 25.07 -3.5 25.7 72 -7.8 18
12:20 1020 30.12 849 25.07 -3.4 25.8 74 -7.4 18.6
12:25 1019 30.09 849 25.07 -3.4 26 74 -7.3 18.9
12:30 1019 30.09 849 25.07 -2.9 26.8 72 -7.2 19
12:35 1019 30.09 848 25.04 -2.2 28.1 68 -7.3 18.9
12:40 1019 30.09 848 25.04 -1.9 28.6 67 -7.2 19
12:45 1019 30.09 848 25.04 -2 28.4 68 -7.2 19.1
12:50 1019 30.09 848 25.04 -2.5 27.4 71 -7.2 19.1
12:55 1019 30.09 849 25.07 -3.5 25.7 74 -7.5 18.6
13:00 1019 30.09 849 25.07 -4 24.8 78 -7.3 18.8
13:05 1019 30.09 849 25.07 -3.5 25.7 77 -7 19.3
13:10 1019 30.09 849 25.07 -3.4 25.9 77 -6.9 19.5
13:15 1019 30.09 849 25.07 -3.3 26 75 -7.1 19.2
13:20 1019 30.09 849 25.07 -2.7 27.2 72 -7 19.4
13:25 1019 30.09 849 25.07 -2.5 27.6 72 -6.8 19.8
13:30 1019 30.09 849 25.07 -2.7 27.1 72 -7.1 19.3
13:35 1019 30.09 849 25.07 -4 24.7 74 -8 17.7
13:40 1019 30.09 849 25.07 -4.8 23.4 79 -7.9 17.8
13:45 1019 30.09 849 25.07 -5 22.9 80 -8 17.6
13:50 1019 30.09 849 25.07 -5.1 22.8 80 -8.1 17.5
13:55 1019 30.09 848 25.04 -4.6 23.7 77 -8 17.6
14:00 1019 30.09 848 25.04 -3.9 24.9 74 -8 17.7
14:05 1019 30.09 848 25.04 -3.4 25.8 72 -7.9 17.8
14:10 1019 30.09 848 25.04 -3.6 25.6 72 -7.8 17.9
14:15 1019 30.09 848 25.04 -3.2 26.3 73 -7.3 18.8
14:20 1019 30.09 848 25.04 -3.2 26.3 73 -7.4 18.7
14:25 1019 30.09 849 25.07 -2.9 26.7 72 -7.3 18.8
14:30 1019 30.09 849 25.07 -2.8 27 73 -6.9 19.5
14:35 1019 30.09 849 25.07 -3.4 25.9 75 -7.2 19
14:40 1019 30.09 849 25.07 -3.2 26.2 75 -7 19.3
14:45 1019 30.09 849 25.07 -3 26.5 75 -6.9 19.6
14:50 1019 30.09 849 25.07 -2.7 27.2 72 -7 19.4
14:55 1019 30.09 849 25.07 -2.8 26.9 74 -6.8 19.7
15:00 1020 30.12 849 25.07 -2.7 27.2 72 -7 19.5
15:05 1020 30.12 849 25.07 -2.2 28.1 71 -6.8 19.8
15:10 1020 30.12 849 25.07 -2.3 27.8 72 -6.7 19.9
15:15 1020 30.12 849 25.07 -2.7 27.2 74 -6.7 19.9
15:20 1020 30.12 849 25.07 -2.9 26.8 75 -6.6 20.1
15:25 1020 30.12 849 25.07 -3.1 26.4 77 -6.6 20.2
15:30 1020 30.12 849 25.07 -3.1 26.5 77 -6.6 20.2
15:35 1020 30.12 849 25.07 -3.1 26.5 76 -6.7 19.9
15:40 1020 30.12 849 25.07 -3 26.5 74 -7 19.4
15:45 1020 30.12 849 25.07 -3.2 26.2 75 -7 19.3
15:50 1020 30.12 849 25.07 -3.5 25.6 77 -7 19.4
15:55 1020 30.12 849 25.07 -3.9 25 79 -7.1 19.3
16:00 1020 30.12 849 25.07 -4.1 24.6 80 -7.2 19.1
16:05 1020 30.12 849 25.07 -4.3 24.2 81 -7.1 19.3
16:10 1020 30.12 849 25.07 -4.4 24 81 -7.2 19.1
16:15 1020 30.12 849 25.07 -4.5 23.9 81 -7.2 19
16:20 1020 30.12 849 25.07 -4.5 23.9 82 -7.2 19.1
16:25 1020 30.12 849 25.07 -4.7 23.5 83 -7.2 19.1
16:30 1020 30.12 849 25.07 -4.8 23.3 83 -7.3 18.9
16:35 1020 30.12 849 25.07 -5.3 22.5 85 -7.4 18.7
16:40 1020 30.12 849 25.07 -5.8 21.6 88 -7.4 18.6
16:45 1020 30.12 849 25.07 -5.9 21.4 88 -7.5 18.5
16:50 1020 30.12 849 25.07 -6 21.2 88 -7.7 18.2
16:55 1020 30.12 849 25.07 -6 21.2 88 -7.6 18.2
17:00 1020 30.12 849 25.07 -5.9 21.3 88 -7.6 18.2
17:05 1020 30.12 849 25.07 -5.9 21.4 88 -7.6 18.4
17:10 1020 30.12 849 25.07 -5.9 21.4 88 -7.5 18.5
17:15 1020 30.12 849 25.07 -5.9 21.3 88 -7.6 18.4
17:20 1020 30.12 849 25.07 -6 21.2 88 -7.6 18.3
17:25 1020 30.12 849 25.07 -6 21.3 89 -7.4 18.6
17:30 1020 30.12 849 25.07 -5.9 21.4 89 -7.4 18.7
17:35 1020 30.12 849 25.07 -5.9 21.4 89 -7.4 18.7
17:40 1020 30.12 849 25.07 -5.8 21.5 90 -7.3 18.9
17:45 1020 30.12 849 25.07 -5.7 21.7 89 -7.2 19
17:50 1020 30.12 849 25.07 -5.7 21.8 89 -7.2 19
17:55 1020 30.12 850 25.1 -5.8 21.6 90 -7.2 19
18:00 1020 30.12 850 25.1 -5.9 21.3 90 -7.3 18.9
18:05 1020 30.12 850 25.1 -5.9 21.4 92 -7 19.4
18:10 1020 30.12 850 25.1 -5.4 22.2 90 -6.9 19.6
18:15 1020 30.12 850 25.1 -5.2 22.6 88 -6.9 19.6
18:20 1021 30.15 850 25.1 -5.1 22.8 86 -7.1 19.3
18:25 1021 30.15 850 25.1 -5.2 22.7 90 -6.6 20.1
18:30 1021 30.15 850 25.1 -4.8 23.3 86 -6.8 19.7
18:35 1021 30.15 850 25.1 -4.9 23.2 88 -6.6 20.1
18:40 1021 30.15 850 25.1 -4.7 23.5 87 -6.6 20.2
18:45 1021 30.15 850 25.1 -4.9 23.2 86 -6.9 19.6
18:50 1021 30.15 850 25.1 -5.4 22.3 88 -7 19.3
18:55 1021 30.15 850 25.1 -5.6 21.9 89 -7.1 19.2
19:00 1021 30.15 850 25.1 -5.6 21.8 90 -7.1 19.2
19:05 1021 30.15 850 25.1 -5.7 21.7 90 -7.2 19.1
19:10 1021 30.15 850 25.1 -5.6 21.8 90 -7.1 19.3
19:15 1021 30.15 850 25.1 -5.5 22.1 89 -7.1 19.3
19:20 1021 30.15 850 25.1 -5.6 22 89 -7.1 19.2
19:25 1021 30.15 850 25.1 -5.7 21.7 90 -7.2 19.1
19:30 1021 30.15 850 25.1 -5.7 21.8 90 -7.1 19.3
19:35 1021 30.15 850 25.1 -5.7 21.7 90 -7.1 19.2
19:40 1021 30.15 850 25.1 -5.8 21.5 90 -7.2 19
19:45 1021 30.15 851 25.13 -6 21.2 90 -7.4 18.7
19:50 1021 30.15 851 25.13 -5.8 21.6 92 -7 19.5
19:55 1022 30.18 851 25.13 -5.4 22.3 91 -6.7 20
20:00 1022 30.18 851 25.13 -5.2 22.6 90 -6.6 20.2
20:05 1022 30.18 851 25.13 -4.8 23.3 90 -6.3 20.7
20:10 1022 30.18 851 25.13 -4.7 23.5 87 -6.5 20.3
20:15 1022 30.18 851 25.13 -4.8 23.3 88 -6.6 20.1
20:20 1022 30.18 851 25.13 -4.8 23.3 87 -6.6 20
20:25 1022 30.18 851 25.13 -5 23.1 88 -6.7 20
20:30 1022 30.18 851 25.13 -5.2 22.7 89 -6.7 19.9
20:35 1022 30.18 851 25.13 -5.2 22.7 89 -6.6 20
20:40 1022 30.18 851 25.13 -5.3 22.5 90 -6.7 20
20:45 1022 30.18 851 25.13 -5.3 22.4 88 -7 19.4
20:50 1022 30.18 851 25.13 -5.8 21.6 92 -6.9 19.6
20:55 1022 30.18 851 25.13 -6.1 21.1 93 -7.1 19.2
21:00 1022 30.18 851 25.13 -6.3 20.6 93 -7.2 19
21:05 1022 30.18 851 25.13 -6.3 20.6 94 -7.1 19.3
21:10 1022 30.18 851 25.13 -6.2 20.9 95 -6.8 19.8
21:15 1022 30.18 851 25.13 -5.7 21.7 96 -6.3 20.7
21:20 1022 30.18 852 25.16 -5.3 22.5 95 -5.9 21.4
21:25 1022 30.18 852 25.16 -5 22.9 93 -6 21.2
21:30 1022 30.18 852 25.16 -4.8 23.4 93 -5.8 21.6
21:35 1023 30.21 852 25.16 -4.8 23.3 93 -5.8 21.5
21:40 1023 30.21 852 25.16 -4.8 23.3 92 -5.9 21.3
21:45 1023 30.21 852 25.16 -5 23.1 91 -6.3 20.7
21:50 1023 30.21 852 25.16 -5.1 22.9 89 -6.6 20.1
21:55 1023 30.21 852 25.16 -5.3 22.5 90 -6.7 19.9
22:00 1023 30.21 852 25.16 -5.6 21.9 91 -6.9 19.6
22:05 1023 30.21 852 25.16 -5.6 21.9 91 -6.8 19.7
22:10 1023 30.21 852 25.16 -5.6 21.9 92 -6.7 19.9
22:15 1023 30.21 852 25.16 -5.4 22.3 93 -6.4 20.5
22:20 1023 30.21 852 25.16 -5.2 22.6 93 -6.2 20.9
22:25 1023 30.21 852 25.16 -5.1 22.7 93 -6.1 21.1
22:30 1023 30.21 852 25.16 -4.9 23.3 92 -5.9 21.3
22:35 1023 30.21 852 25.16 -4.8 23.3 91 -6 21.1
22:40 1023 30.21 852 25.16 -5 23 90 -6.4 20.5
22:45 1023 30.21 852 25.16 -5.2 22.6 90 -6.6 20.1
22:50 1023 30.21 852 25.16 -5.4 22.3 91 -6.7 20
22:55 1023 30.21 852 25.16 -5.3 22.6 94 -6.1 21
23:00 1023 30.21 852 25.16 -4.8 23.4 94 -5.6 21.9
23:05 1023 30.21 853 25.19 -4.4 24.1 93 -5.3 22.4
23:10 1023 30.21 853 25.19 -4.2 24.4 93 -5.2 22.6
23:15 1023 30.21 853 25.19 -4 24.7 92 -5.2 22.7
23:20 1023 30.21 853 25.19 -3.8 25.2 91 -5.1 22.9
23:25 1023 30.21 853 25.19 -3.7 25.3 91 -5 23
23:30 1023 30.21 853 25.19 -3.6 25.5 90 -5.1 22.9
23:35 1024 30.24 853 25.19 -3.5 25.6 87 -5.4 22.2
23:40 1024 30.24 853 25.19 -3.8 25.2 89 -5.3 22.4
23:45 1024 30.24 853 25.19 -4 24.7 90 -5.5 22.2
23:50 1024 30.24 853 25.19 -4.3 24.3 91 -5.5 22.1
23:55 1024 30.24 853 25.19 -4.3 24.2 92 -5.4 22.2
24:00 1024 30.24 853 25.19 -4.1 24.5 92 -5.2 22.6